createdAt,value
2017-06-13T00:02:02.076Z,1.90
2017-06-13T00:04:28.442Z,2.30
2017-06-13T00:06:54.745Z,2.50
2017-06-13T00:09:21.825Z,2.37
2017-06-13T00:11:48.175Z,1.83
2017-06-13T00:14:14.506Z,2.53
2017-06-13T00:16:40.886Z,3.33
2017-06-13T00:19:07.950Z,2.50
2017-06-13T00:21:34.297Z,2.53
2017-06-13T00:24:00.622Z,3.20
2017-06-13T00:26:26.938Z,2.03
2017-06-13T00:28:53.284Z,2.07
2017-06-13T00:31:19.581Z,2.13
2017-06-13T00:33:46.667Z,2.00
2017-06-13T00:36:12.964Z,2.10
2017-06-13T00:38:40.038Z,2.00
2017-06-13T00:41:06.309Z,2.60
2017-06-13T00:43:32.618Z,2.53
2017-06-13T00:45:58.958Z,2.20
2017-06-13T00:48:25.265Z,2.53
2017-06-13T00:50:51.579Z,2.47
2017-06-13T00:53:17.901Z,2.10
2017-06-13T00:55:44.994Z,2.50
2017-06-13T00:58:11.337Z,2.10
2017-06-13T01:00:37.657Z,2.47
2017-06-13T01:03:04.025Z,2.70
2017-06-13T01:05:30.331Z,2.90
2017-06-13T01:07:56.651Z,3.40
2017-06-13T01:10:22.990Z,2.87
2017-06-13T01:12:49.341Z,2.87
2017-06-13T01:15:15.677Z,2.03
2017-06-13T01:17:41.974Z,2.50
2017-06-13T01:20:08.328Z,2.23
2017-06-13T01:22:34.642Z,2.27
2017-06-13T01:25:00.969Z,2.87
2017-06-13T01:27:27.295Z,2.53
2017-06-13T01:29:53.632Z,2.20
2017-06-13T01:32:19.966Z,2.50
2017-06-13T01:34:46.295Z,2.50
2017-06-13T01:37:12.642Z,2.30
2017-06-13T01:39:38.969Z,2.77
2017-06-13T01:42:05.305Z,2.50
2017-06-13T01:44:31.684Z,2.17
2017-06-13T01:46:58.020Z,2.10
2017-06-13T01:49:24.381Z,2.03
2017-06-13T01:51:50.715Z,2.13
2017-06-13T01:54:17.066Z,2.40
2017-06-13T01:56:43.421Z,2.40
2017-06-13T01:59:09.743Z,2.53
2017-06-13T02:01:36.113Z,2.00
2017-06-13T02:04:02.451Z,2.40
2017-06-13T02:06:28.758Z,1.87
2017-06-13T02:08:55.090Z,2.60
2017-06-13T02:11:21.408Z,2.57
2017-06-13T02:13:47.731Z,2.60
2017-06-13T02:16:14.791Z,2.17
2017-06-13T02:18:41.108Z,2.03
2017-06-13T02:21:07.433Z,2.40
2017-06-13T02:23:33.734Z,2.33
2017-06-13T02:26:00.044Z,2.03
2017-06-13T02:28:26.375Z,1.97
2017-06-13T02:30:53.319Z,2.37
2017-06-13T02:33:19.654Z,2.13
2017-06-13T02:35:45.991Z,2.43
2017-06-13T02:38:12.356Z,2.90
2017-06-13T02:40:39.414Z,2.57
2017-06-13T02:43:05.733Z,2.20
2017-06-13T02:45:32.093Z,2.50
2017-06-13T02:47:58.393Z,2.47
2017-06-13T02:50:25.452Z,2.00
2017-06-13T02:52:51.772Z,2.97
2017-06-13T02:55:18.124Z,2.17
2017-06-13T02:57:44.412Z,1.90
2017-06-13T03:00:10.754Z,2.23
2017-06-13T03:02:37.829Z,2.20
2017-06-13T03:05:04.162Z,2.80
2017-06-13T03:07:30.522Z,1.90
2017-06-13T03:09:56.851Z,2.50
2017-06-13T03:12:23.221Z,1.90
2017-06-13T03:14:49.516Z,2.63
2017-06-13T03:17:15.848Z,2.17
2017-06-13T03:19:42.173Z,1.70
2017-06-13T03:22:08.497Z,2.33
2017-06-13T03:24:34.857Z,2.10
2017-06-13T03:27:01.171Z,1.80
2017-06-13T03:29:27.496Z,2.60
2017-06-13T03:31:53.827Z,2.17
2017-06-13T03:34:20.134Z,2.10
2017-06-13T03:36:46.462Z,2.70
2017-06-13T03:39:12.795Z,2.27
2017-06-13T03:41:39.146Z,1.83
2017-06-13T03:44:05.441Z,1.83
2017-06-13T03:46:31.804Z,2.57
2017-06-13T03:48:58.134Z,1.97
2017-06-13T03:51:24.447Z,1.80
2017-06-13T03:53:50.785Z,1.60
2017-06-13T03:56:17.117Z,2.03
2017-06-13T03:58:43.469Z,1.93
2017-06-13T04:01:09.789Z,2.10
2017-06-13T04:03:36.125Z,2.00
2017-06-13T04:06:02.483Z,1.87
2017-06-13T04:08:28.825Z,2.00
2017-06-13T04:10:55.895Z,1.90
2017-06-13T04:13:22.205Z,2.00
2017-06-13T04:15:48.553Z,1.93
2017-06-13T04:18:14.921Z,1.93
2017-06-13T04:20:41.209Z,1.97
2017-06-13T04:23:07.530Z,1.93
2017-06-13T04:25:33.860Z,2.33
2017-06-13T04:28:00.910Z,1.90
2017-06-13T04:30:27.969Z,1.83
2017-06-13T04:32:54.275Z,1.70
2017-06-13T04:35:20.615Z,3.10
2017-06-13T04:37:46.916Z,1.83
2017-06-13T04:40:13.275Z,2.43
2017-06-13T04:42:39.625Z,1.73
2017-06-13T04:45:05.929Z,1.80
2017-06-13T04:47:32.225Z,1.43
2017-06-13T04:49:58.497Z,2.10
2017-06-13T04:52:25.594Z,1.83
2017-06-13T04:54:51.902Z,2.33
2017-06-13T04:57:18.229Z,1.70
2017-06-13T04:59:44.537Z,1.87
2017-06-13T05:02:11.799Z,2.10
2017-06-13T05:04:38.127Z,1.93
2017-06-13T05:07:04.418Z,1.97
2017-06-13T05:09:30.768Z,1.90
2017-06-13T05:11:57.055Z,2.00
2017-06-13T05:14:23.357Z,2.30
2017-06-13T05:16:49.676Z,1.60
2017-06-13T05:19:16.722Z,1.80
2017-06-13T05:21:43.777Z,1.87
2017-06-13T05:24:10.091Z,1.67
2017-06-13T05:26:37.161Z,1.90
2017-06-13T05:29:03.454Z,1.50
2017-06-13T05:31:29.780Z,1.80
2017-06-13T05:33:56.211Z,1.83
2017-06-13T05:36:22.511Z,1.70
2017-06-13T05:38:48.849Z,2.13
2017-06-13T05:41:15.194Z,1.70
2017-06-13T05:43:41.530Z,1.93
2017-06-13T05:46:07.835Z,1.83
2017-06-13T05:48:34.150Z,1.60
2017-06-13T05:51:00.490Z,1.77
2017-06-13T05:53:26.826Z,1.97
2017-06-13T05:55:53.156Z,2.20
2017-06-13T05:58:19.446Z,1.57
2017-06-13T06:00:45.794Z,2.10
2017-06-13T06:03:12.118Z,1.77
2017-06-13T06:05:38.422Z,2.53
2017-06-13T06:08:05.494Z,2.00
2017-06-13T06:10:31.811Z,1.70
2017-06-13T06:12:58.118Z,2.40
2017-06-13T06:15:24.417Z,1.80
2017-06-13T06:17:50.783Z,2.10
2017-06-13T06:20:17.091Z,1.90
2017-06-13T06:22:43.390Z,1.90
2017-06-13T06:25:09.722Z,1.90
2017-06-13T06:27:36.037Z,2.17
2017-06-13T06:30:02.373Z,2.37
2017-06-13T06:32:28.692Z,1.77
2017-06-13T06:34:55.025Z,2.63
2017-06-13T06:37:21.344Z,1.83
2017-06-13T06:39:47.661Z,2.00
2017-06-13T06:42:14.726Z,2.10
2017-06-13T06:44:41.047Z,2.40
2017-06-13T06:47:08.114Z,2.70
2017-06-13T06:49:34.437Z,2.20
2017-06-13T06:52:00.792Z,2.47
2017-06-13T06:54:27.069Z,2.40
2017-06-13T06:56:53.369Z,2.67
2017-06-13T06:59:19.683Z,1.90
2017-06-13T07:01:45.984Z,1.87
2017-06-13T07:04:12.317Z,1.83
2017-06-13T07:06:38.609Z,2.00
2017-06-13T07:09:04.954Z,2.70
2017-06-13T07:11:31.254Z,2.23
2017-06-13T07:13:57.568Z,3.07
2017-06-13T07:16:23.894Z,2.40
2017-06-13T07:18:50.184Z,1.93
2017-06-13T07:21:17.233Z,2.20
2017-06-13T07:23:43.582Z,2.70
2017-06-13T07:26:09.909Z,2.77
2017-06-13T07:28:36.223Z,1.60
2017-06-13T07:31:03.324Z,2.13
2017-06-13T07:33:29.646Z,2.83
2017-06-13T07:35:55.954Z,1.77
2017-06-13T07:38:22.284Z,2.27
2017-06-13T07:40:48.601Z,2.20
2017-06-13T07:43:14.911Z,2.10
2017-06-13T07:45:41.232Z,2.30
2017-06-13T07:48:07.551Z,2.10
2017-06-13T07:50:33.889Z,1.90
2017-06-13T07:53:00.196Z,2.50
2017-06-13T07:55:26.575Z,1.90
2017-06-13T07:57:52.905Z,2.40
2017-06-13T08:00:20.769Z,2.87
2017-06-13T08:02:47.830Z,2.23
2017-06-13T08:05:14.109Z,2.40
2017-06-13T08:07:40.429Z,2.57
2017-06-13T08:10:06.734Z,2.37
2017-06-13T08:12:33.066Z,2.60
2017-06-13T08:14:59.379Z,3.00
2017-06-13T08:17:25.686Z,4.27
2017-06-13T08:19:53.645Z,2.30
2017-06-13T08:22:19.975Z,1.87
2017-06-13T08:24:46.332Z,2.33
2017-06-13T08:27:13.417Z,2.10
2017-06-13T08:29:39.761Z,2.37
2017-06-13T08:32:06.085Z,2.70
2017-06-13T08:34:32.385Z,2.80
2017-06-13T08:36:58.688Z,2.43
2017-06-13T08:39:25.742Z,2.20
2017-06-13T08:41:52.851Z,2.20
2017-06-13T08:44:19.148Z,2.83
2017-06-13T08:46:45.460Z,2.57
2017-06-13T08:49:11.798Z,3.67
2017-06-13T08:51:38.109Z,2.90
2017-06-13T08:54:05.195Z,2.30
2017-06-13T08:56:31.499Z,2.63
2017-06-13T08:58:57.818Z,1.80
2017-06-13T09:01:24.876Z,2.90
2017-06-13T09:03:51.226Z,2.77
2017-06-13T09:06:17.538Z,2.20
2017-06-13T09:08:44.571Z,2.43
2017-06-13T09:11:11.304Z,2.20
2017-06-13T09:13:37.624Z,3.30
2017-06-13T09:16:03.961Z,2.10
2017-06-13T09:18:30.296Z,2.90
2017-06-13T09:20:57.349Z,1.80
2017-06-13T09:23:24.423Z,2.73
2017-06-13T09:25:50.755Z,2.23
2017-06-13T09:28:17.116Z,2.47
2017-06-13T09:30:43.419Z,2.80
2017-06-13T09:33:09.712Z,2.47
2017-06-13T09:35:36.036Z,2.87
2017-06-13T09:38:02.344Z,2.47
2017-06-13T09:40:28.702Z,2.97
2017-06-13T09:42:55.760Z,2.30
2017-06-13T09:45:22.089Z,2.37
2017-06-13T09:47:48.377Z,2.27
2017-06-13T09:50:14.677Z,2.50
2017-06-13T09:52:40.992Z,2.77
2017-06-13T09:55:07.327Z,2.63
2017-06-13T09:57:33.667Z,2.40
2017-06-13T09:59:59.988Z,2.17
2017-06-13T10:02:26.333Z,2.70
2017-06-13T10:04:52.628Z,2.40
2017-06-13T10:07:19.687Z,2.80
2017-06-13T10:09:46.000Z,2.20
2017-06-13T10:12:13.051Z,2.20
2017-06-13T10:14:40.103Z,2.53
2017-06-13T10:17:06.401Z,2.93
2017-06-13T10:19:32.751Z,2.50
2017-06-13T10:21:59.049Z,2.60
2017-06-13T10:24:25.351Z,2.40
2017-06-13T10:26:51.669Z,2.90
2017-06-13T10:29:17.979Z,2.50
2017-06-13T10:31:45.072Z,2.83
2017-06-13T10:34:11.394Z,3.20
2017-06-13T10:36:37.712Z,3.13
2017-06-13T10:39:04.024Z,3.57
2017-06-13T10:41:30.361Z,2.60
2017-06-13T10:43:56.686Z,3.07
2017-06-13T10:46:23.034Z,4.60
2017-06-13T10:48:49.396Z,3.70
2017-06-13T10:51:15.705Z,6.07
2017-06-13T10:53:42.009Z,3.67
2017-06-13T10:56:09.061Z,3.80
2017-06-13T10:58:35.414Z,3.30
2017-06-13T11:01:01.749Z,2.80
2017-06-13T11:03:28.069Z,3.57
2017-06-13T11:05:54.437Z,3.13
2017-06-13T11:08:20.773Z,3.40
2017-06-13T11:10:47.092Z,2.90
2017-06-13T11:13:13.418Z,3.10
2017-06-13T11:15:39.725Z,3.47
2017-06-13T11:18:06.065Z,3.30
2017-06-13T11:20:32.401Z,2.90
2017-06-13T11:22:58.770Z,3.40
2017-06-13T11:25:25.085Z,2.80
2017-06-13T11:27:51.379Z,3.50
2017-06-13T11:30:17.703Z,2.90
2017-06-13T11:32:44.039Z,4.67
2017-06-13T11:35:10.373Z,3.60
2017-06-13T11:37:36.738Z,3.90
2017-06-13T11:40:03.110Z,3.70
2017-06-13T11:42:29.425Z,2.37
2017-06-13T11:44:56.473Z,4.03
2017-06-13T11:47:23.532Z,4.80
2017-06-13T11:49:49.849Z,4.30
2017-06-13T11:52:17.000Z,3.50
2017-06-13T11:54:43.313Z,4.83
2017-06-13T11:57:09.702Z,4.10
2017-06-13T11:59:36.028Z,4.40
2017-06-13T12:02:02.357Z,4.13
2017-06-13T12:04:28.686Z,4.17
2017-06-13T12:06:54.989Z,4.53
2017-06-13T12:09:22.081Z,4.17
2017-06-13T12:11:48.395Z,4.17
2017-06-13T12:14:14.719Z,4.30
2017-06-13T12:16:41.046Z,3.80
2017-06-13T12:19:07.366Z,4.33
2017-06-13T12:21:33.686Z,4.30
2017-06-13T12:24:00.733Z,4.50
2017-06-13T12:26:27.772Z,5.60
2017-06-13T12:28:54.124Z,4.10
2017-06-13T12:31:20.462Z,3.67
2017-06-13T12:33:46.790Z,4.47
2017-06-13T12:36:13.140Z,4.23
2017-06-13T12:38:39.481Z,4.40
2017-06-13T12:41:05.798Z,3.60
2017-06-13T12:43:32.119Z,3.90
2017-06-13T12:45:58.438Z,4.07
2017-06-13T12:48:24.763Z,4.10
2017-06-13T12:50:51.138Z,4.17
2017-06-13T12:53:17.493Z,3.80
2017-06-13T12:55:43.799Z,3.33
2017-06-13T12:58:10.119Z,3.53
2017-06-13T13:00:36.455Z,3.13
2017-06-13T13:03:02.761Z,3.30
2017-06-13T13:05:29.079Z,4.50
2017-06-13T13:07:55.425Z,3.50
2017-06-13T13:10:21.758Z,3.43
2017-06-13T13:12:48.077Z,3.80
2017-06-13T13:15:14.425Z,3.70
2017-06-13T13:17:40.713Z,3.77
2017-06-13T13:20:07.030Z,3.50
2017-06-13T13:22:34.286Z,3.50
2017-06-13T13:25:00.605Z,3.43
2017-06-13T13:27:26.945Z,3.50
2017-06-13T13:29:53.273Z,3.60
2017-06-13T13:32:19.905Z,3.40
2017-06-13T13:34:46.226Z,2.83
2017-06-13T13:37:12.524Z,3.40
2017-06-13T13:39:45.883Z,3.07
2017-06-13T13:42:12.925Z,2.97
2017-06-13T13:44:39.964Z,3.60
2017-06-13T13:47:06.309Z,3.27
2017-06-13T13:49:32.624Z,2.60
2017-06-13T13:51:58.971Z,2.90
2017-06-13T13:54:25.285Z,3.17
2017-06-13T13:56:51.615Z,2.50
2017-06-13T13:59:17.959Z,2.23
2017-06-13T14:01:44.262Z,2.83
2017-06-13T14:04:10.609Z,2.43
2017-06-13T14:06:37.688Z,2.80
2017-06-13T14:09:04.109Z,2.50
2017-06-13T14:11:30.446Z,3.00
2017-06-13T14:13:57.125Z,2.40
2017-06-13T14:16:24.072Z,2.47
2017-06-13T14:18:50.420Z,2.60
2017-06-13T14:21:16.716Z,2.40
2017-06-13T14:23:43.036Z,2.50
2017-06-13T14:26:09.375Z,2.90
2017-06-13T14:28:35.677Z,2.10
2017-06-13T14:31:02.370Z,2.40
2017-06-13T14:33:28.707Z,2.57
2017-06-13T14:35:55.045Z,2.17
2017-06-13T14:38:21.381Z,1.97
2017-06-13T14:40:47.726Z,2.13
2017-06-13T14:43:14.070Z,2.23
2017-06-13T14:45:40.434Z,2.67
2017-06-13T14:48:07.116Z,1.80
2017-06-13T14:50:33.417Z,1.63
2017-06-13T14:52:59.860Z,1.50
2017-06-13T14:55:26.186Z,1.63
2017-06-13T14:57:52.539Z,1.93
2017-06-13T15:00:18.970Z,2.40
2017-06-13T15:02:45.324Z,1.70
2017-06-13T15:05:11.675Z,2.67
2017-06-13T15:07:38.005Z,2.00
2017-06-13T15:10:04.310Z,2.07
2017-06-13T15:12:30.675Z,2.10
2017-06-13T15:14:56.990Z,1.80
2017-06-13T15:17:23.307Z,2.17
2017-06-13T15:19:49.656Z,1.47
2017-06-13T15:22:16.975Z,2.40
2017-06-13T15:24:43.296Z,1.70
2017-06-13T15:27:10.375Z,2.00
2017-06-13T15:29:36.724Z,1.57
2017-06-13T15:32:03.078Z,1.20
2017-06-13T15:34:29.431Z,1.60
2017-06-13T15:36:55.772Z,1.53
2017-06-13T15:39:22.094Z,1.80
2017-06-13T15:41:48.427Z,1.60
2017-06-13T15:44:14.770Z,1.73
2017-06-13T15:46:42.917Z,1.60
2017-06-13T15:49:09.267Z,2.33
2017-06-13T15:51:36.328Z,2.23
2017-06-13T15:54:02.650Z,2.50
2017-06-13T15:56:29.729Z,1.50
2017-06-13T15:58:56.084Z,1.60
2017-06-13T16:01:22.387Z,1.90
2017-06-13T16:03:48.778Z,2.00
2017-06-13T16:06:15.158Z,2.43
2017-06-13T16:08:41.467Z,1.93
2017-06-13T16:11:07.804Z,2.17
2017-06-13T16:13:34.124Z,2.00
2017-06-13T16:16:00.492Z,2.27
2017-06-13T16:18:26.816Z,1.90
2017-06-13T16:20:53.144Z,1.70
2017-06-13T16:23:19.461Z,1.73
2017-06-13T16:25:46.577Z,1.97
2017-06-13T16:28:12.957Z,1.70
2017-06-13T16:30:40.455Z,2.17
2017-06-13T16:33:07.569Z,1.97
2017-06-13T16:35:33.900Z,1.50
2017-06-13T16:38:00.224Z,1.90
2017-06-13T16:40:26.548Z,2.10
2017-06-13T16:42:52.892Z,1.60
2017-06-13T16:45:19.503Z,1.93
2017-06-13T16:47:45.818Z,2.10
2017-06-13T16:50:12.160Z,2.07
2017-06-13T16:52:38.523Z,1.93
2017-06-13T16:55:04.864Z,2.00
2017-06-13T16:57:31.213Z,2.27
2017-06-13T16:59:57.551Z,2.50
2017-06-13T17:02:23.918Z,1.93
2017-06-13T17:04:50.429Z,2.10
2017-06-13T17:07:17.512Z,2.20
2017-06-13T17:09:43.843Z,2.20
2017-06-13T17:12:10.184Z,2.63
2017-06-13T17:14:36.524Z,1.43
2017-06-13T17:17:02.873Z,2.17
2017-06-13T17:19:29.176Z,2.30
2017-06-13T17:21:55.517Z,2.20
2017-06-13T17:24:21.846Z,2.07
2017-06-13T17:26:48.164Z,1.80
2017-06-13T17:29:14.475Z,1.80
2017-06-13T17:31:40.822Z,2.20
2017-06-13T17:34:07.132Z,2.30
2017-06-13T17:36:33.468Z,2.00
2017-06-13T17:38:59.820Z,2.20
2017-06-13T17:41:26.134Z,2.00
2017-06-13T17:43:52.461Z,2.20
2017-06-13T17:46:18.761Z,2.10
2017-06-13T17:48:45.141Z,2.60
2017-06-13T17:51:11.470Z,1.90
2017-06-13T17:53:37.791Z,1.80
2017-06-13T17:56:04.175Z,2.30
2017-06-13T17:58:31.265Z,2.30
2017-06-13T18:00:57.645Z,2.50
2017-06-13T18:03:24.015Z,2.43
2017-06-13T18:05:50.406Z,2.47
2017-06-13T18:08:16.733Z,2.80
2017-06-13T18:10:43.039Z,3.30
2017-06-13T18:13:09.408Z,3.00
2017-06-13T18:15:35.769Z,2.90
2017-06-13T18:18:02.101Z,3.40
2017-06-13T18:20:28.427Z,3.50
2017-06-13T18:22:54.791Z,3.80
2017-06-13T18:25:21.134Z,3.27
2017-06-13T18:27:47.456Z,3.50
2017-06-13T18:30:13.856Z,3.80
2017-06-13T18:32:40.174Z,4.20
2017-06-13T18:35:07.257Z,3.70
2017-06-13T18:37:33.615Z,3.53
2017-06-13T18:39:59.949Z,3.73
2017-06-13T18:42:26.475Z,3.20
2017-06-13T18:44:52.828Z,4.50
2017-06-13T18:47:19.120Z,3.70
2017-06-13T18:49:45.474Z,3.73
2017-06-13T18:52:11.808Z,3.93
2017-06-13T18:54:38.140Z,4.20
2017-06-13T18:57:04.478Z,4.00
2017-06-13T18:59:30.757Z,4.30
2017-06-13T19:01:57.115Z,3.40
2017-06-13T19:04:23.458Z,3.90
2017-06-13T19:06:49.788Z,3.77
2017-06-13T19:09:16.125Z,3.67
2017-06-13T19:11:42.525Z,4.10
2017-06-13T19:14:08.875Z,4.90
2017-06-13T19:16:35.235Z,4.73
2017-06-13T19:19:02.351Z,5.33
2017-06-13T19:21:28.733Z,4.30
2017-06-13T19:23:55.085Z,5.93
2017-06-13T19:26:21.395Z,5.50
2017-06-13T19:28:47.792Z,5.90
2017-06-13T19:31:14.138Z,5.17
2017-06-13T19:33:40.499Z,5.10
2017-06-13T19:36:06.856Z,5.10
2017-06-13T19:38:33.223Z,5.40
2017-06-13T19:40:59.626Z,5.20
2017-06-13T19:43:25.975Z,6.10
2017-06-13T19:45:52.617Z,5.33
2017-06-13T19:48:18.940Z,5.87
2017-06-13T19:50:45.280Z,6.53
2017-06-13T19:53:11.622Z,5.33
2017-06-13T19:55:38.722Z,6.00
2017-06-13T19:58:05.069Z,5.83
2017-06-13T20:00:31.410Z,5.47
2017-06-13T20:02:57.963Z,5.00
2017-06-13T20:05:24.343Z,4.80
2017-06-13T20:07:50.694Z,6.33
2017-06-13T20:10:17.065Z,6.50
2017-06-13T20:12:44.171Z,5.83
2017-06-13T20:15:10.535Z,6.17
2017-06-13T20:17:36.916Z,5.30
2017-06-13T20:20:03.362Z,5.37
2017-06-13T20:22:29.715Z,5.10
2017-06-13T20:24:56.645Z,5.57
2017-06-13T20:27:23.000Z,6.80
2017-06-13T20:29:49.359Z,5.97
2017-06-13T20:32:15.722Z,5.13
2017-06-13T20:34:42.093Z,4.80
2017-06-13T20:37:08.440Z,5.30
2017-06-13T20:39:35.571Z,5.27
2017-06-13T20:42:01.940Z,5.37
2017-06-13T20:44:28.296Z,6.17
2017-06-13T20:46:54.613Z,4.83
2017-06-13T20:49:20.954Z,5.60
2017-06-13T20:51:47.298Z,4.70
2017-06-13T20:54:13.651Z,5.07
2017-06-13T20:56:39.972Z,5.13
2017-06-13T20:59:06.323Z,5.20
2017-06-13T21:01:32.675Z,4.10
2017-06-13T21:03:59.010Z,4.60
2017-06-13T21:06:25.420Z,5.00
2017-06-13T21:08:51.721Z,4.67
2017-06-13T21:11:18.044Z,5.07
2017-06-13T21:13:44.381Z,4.70
2017-06-13T21:16:10.716Z,4.40
2017-06-13T21:18:37.085Z,4.80
2017-06-13T21:21:04.146Z,4.70
2017-06-13T21:23:30.504Z,4.50
2017-06-13T21:25:56.859Z,4.07
2017-06-13T21:28:23.219Z,4.57
2017-06-13T21:30:50.303Z,4.80
2017-06-13T21:33:16.633Z,5.53
2017-06-13T21:35:43.018Z,4.30
2017-06-13T21:38:10.119Z,4.53
2017-06-13T21:40:36.476Z,5.33
2017-06-13T21:43:02.829Z,5.07
2017-06-13T21:45:29.165Z,5.20
2017-06-13T21:47:55.708Z,4.67
2017-06-13T21:50:22.901Z,5.03
2017-06-13T21:52:49.228Z,4.30
2017-06-13T21:55:15.586Z,5.03
2017-06-13T21:57:42.980Z,5.10
2017-06-13T22:00:09.342Z,4.77
2017-06-13T22:02:35.659Z,5.00
2017-06-13T22:05:02.173Z,5.20
2017-06-13T22:07:29.304Z,5.13
2017-06-13T22:09:57.282Z,4.90
2017-06-13T22:12:24.441Z,4.70
2017-06-13T22:14:50.842Z,5.40
2017-06-13T22:17:17.216Z,5.03
2017-06-13T22:19:43.595Z,4.87
2017-06-13T22:22:09.980Z,4.07
2017-06-13T22:24:36.353Z,5.10
2017-06-13T22:27:02.741Z,5.80
2017-06-13T22:29:29.158Z,5.43
2017-06-13T22:31:55.510Z,5.17
2017-06-13T22:34:21.880Z,6.07
2017-06-13T22:36:48.211Z,4.90
2017-06-13T22:39:14.544Z,4.97
2017-06-13T22:41:40.875Z,4.90
2017-06-13T22:44:07.360Z,5.37
2017-06-13T22:46:33.714Z,5.07
2017-06-13T22:49:00.095Z,5.80
2017-06-13T22:51:26.501Z,4.90
2017-06-13T22:53:52.837Z,5.10
2017-06-13T22:56:19.198Z,4.50
2017-06-13T22:58:46.320Z,4.67
2017-06-13T23:01:12.690Z,4.90
2017-06-13T23:03:39.112Z,5.20
2017-06-13T23:06:05.496Z,5.43
2017-06-13T23:08:31.892Z,5.13
2017-06-13T23:10:58.300Z,6.03
2017-06-13T23:13:24.712Z,5.70
2017-06-13T23:15:51.250Z,5.47
2017-06-13T23:18:17.620Z,5.23
2017-06-13T23:20:43.949Z,5.53
2017-06-13T23:23:12.094Z,5.67
2017-06-13T23:25:38.640Z,5.90
2017-06-13T23:28:04.985Z,5.40
2017-06-13T23:30:31.303Z,5.30
2017-06-13T23:32:57.634Z,5.00
2017-06-13T23:35:24.008Z,6.10
2017-06-13T23:37:50.394Z,5.60
2017-06-13T23:40:17.462Z,5.67
2017-06-13T23:42:44.508Z,6.23
2017-06-13T23:45:11.616Z,5.97
2017-06-13T23:47:37.946Z,6.17
2017-06-13T23:50:04.276Z,5.60
2017-06-13T23:52:30.591Z,4.93
2017-06-13T23:54:56.962Z,5.47
2017-06-13T23:57:23.354Z,5.93
2017-06-13T23:59:49.694Z,6.27
